createdAt,value
2022-10-05T00:02:05.389Z,101164.09
2022-10-05T00:04:38.506Z,101161.47
2022-10-05T00:07:20.482Z,101165.25
2022-10-05T00:09:59.883Z,101166.84
2022-10-05T00:12:30.643Z,101161.19
2022-10-05T00:15:02.129Z,101164.50
2022-10-05T00:17:32.958Z,101162.53
2022-10-05T00:20:26.227Z,101154.69
2022-10-05T00:23:02.498Z,101160.72
2022-10-05T00:25:33.627Z,101150.91
2022-10-05T00:28:22.721Z,101154.47
2022-10-05T00:30:58.583Z,101145.06
2022-10-05T00:33:29.461Z,101153.88
2022-10-05T00:36:01.639Z,101147.69
2022-10-05T00:38:31.147Z,101139.97
2022-10-05T00:41:07.912Z,101146.28
2022-10-05T00:43:53.237Z,101136.47
2022-10-05T00:46:49.420Z,101139.81
2022-10-05T00:49:26.389Z,101155.44
2022-10-05T00:52:41.528Z,101155.59
2022-10-05T00:55:19.930Z,101151.28
2022-10-05T00:58:05.521Z,101148.13
2022-10-05T01:00:55.853Z,101149.47
2022-10-05T01:03:41.509Z,101166.47
2022-10-05T01:06:58.186Z,101150.66
2022-10-05T01:09:59.437Z,101154.12
2022-10-05T01:12:48.517Z,101157.47
2022-10-05T01:15:47.983Z,101159.97
2022-10-05T01:18:28.785Z,101166.53
2022-10-05T01:21:11.265Z,101174.25
2022-10-05T01:24:03.256Z,101170.19
2022-10-05T01:26:50.868Z,101176.22
2022-10-05T01:29:38.498Z,101181.50
2022-10-05T01:32:24.369Z,101181.00
2022-10-05T01:35:01.367Z,101178.78
2022-10-05T01:38:04.085Z,101183.13
2022-10-05T01:40:59.938Z,101192.06
2022-10-05T01:43:45.773Z,101190.16
2022-10-05T01:46:37.278Z,101186.78
2022-10-05T01:49:33.211Z,101179.44
2022-10-05T01:52:31.050Z,101179.91
2022-10-05T01:55:43.834Z,101171.41
2022-10-05T01:58:31.749Z,101178.41
2022-10-05T02:01:23.809Z,101178.97
2022-10-05T02:04:21.103Z,101182.44
2022-10-05T02:07:05.260Z,101191.75
2022-10-05T02:09:47.879Z,101185.87
2022-10-05T02:12:21.026Z,101200.66
2022-10-05T02:14:59.960Z,101199.81
2022-10-05T02:17:41.264Z,101201.53
2022-10-05T02:20:18.387Z,101204.22
2022-10-05T02:23:09.114Z,101194.69
2022-10-05T02:25:43.390Z,101199.72
2022-10-05T02:28:28.823Z,101208.31
2022-10-05T02:31:09.294Z,101202.50
2022-10-05T02:33:41.246Z,101197.16
2022-10-05T02:36:16.494Z,101200.88
2022-10-05T02:39:08.690Z,101199.00
2022-10-05T02:41:49.233Z,101210.37
2022-10-05T02:44:29.213Z,101209.69
2022-10-05T02:47:08.009Z,101207.38
2022-10-05T02:49:59.139Z,101208.00
2022-10-05T02:52:35.657Z,101206.37
2022-10-05T02:55:15.378Z,101209.72
2022-10-05T02:57:52.627Z,101207.13
2022-10-05T03:00:23.842Z,101206.34
2022-10-05T03:03:05.217Z,101211.31
2022-10-05T03:05:37.180Z,101200.75
2022-10-05T03:08:25.634Z,101199.87
2022-10-05T03:11:21.968Z,101205.12
2022-10-05T03:14:10.979Z,101191.16
2022-10-05T03:16:48.352Z,101193.22
2022-10-05T03:19:55.665Z,101188.81
2022-10-05T03:22:55.465Z,101187.59
2022-10-05T03:25:53.935Z,101178.25
2022-10-05T03:28:33.224Z,101176.75
2022-10-05T03:31:05.497Z,101177.78
2022-10-05T03:33:51.241Z,101178.41
2022-10-05T03:36:23.645Z,101180.13
2022-10-05T03:39:20.611Z,101184.75
2022-10-05T03:42:09.658Z,101186.47
2022-10-05T03:44:52.325Z,101195.28
2022-10-05T03:48:07.356Z,101193.50
2022-10-05T03:50:55.755Z,101198.72
2022-10-05T03:53:28.511Z,101200.59
2022-10-05T03:56:18.314Z,101210.09
2022-10-05T03:58:57.551Z,101214.62
2022-10-05T04:01:39.258Z,101212.78
2022-10-05T04:04:14.206Z,101215.34
2022-10-05T04:06:47.519Z,101216.22
2022-10-05T04:09:24.201Z,101208.34
2022-10-05T04:12:10.108Z,101217.97
2022-10-05T04:14:47.530Z,101207.66
2022-10-05T04:17:22.995Z,101207.72
2022-10-05T04:19:58.257Z,101210.16
2022-10-05T04:23:17.693Z,101218.00
2022-10-05T04:26:02.836Z,101219.78
2022-10-05T04:28:41.786Z,101221.44
2022-10-05T04:31:17.680Z,101215.44
2022-10-05T04:33:51.623Z,101225.94
2022-10-05T04:36:33.854Z,101211.09
2022-10-05T04:39:18.259Z,101212.72
2022-10-05T04:42:30.381Z,101220.50
2022-10-05T04:45:28.766Z,101222.44
2022-10-05T04:48:28.100Z,101231.16
2022-10-05T04:51:20.198Z,101227.69
2022-10-05T04:53:57.360Z,101227.69
2022-10-05T04:56:39.754Z,101233.81
2022-10-05T04:59:22.948Z,101225.16
2022-10-05T05:01:58.426Z,101222.50
2022-10-05T05:04:26.267Z,101219.84
2022-10-05T05:07:15.765Z,101222.53
2022-10-05T05:10:22.603Z,101225.19
2022-10-05T05:12:57.241Z,101233.87
2022-10-05T05:15:26.400Z,101226.00
2022-10-05T05:18:26.169Z,101219.00
2022-10-05T05:21:24.710Z,101219.94
2022-10-05T05:24:24.099Z,101223.34
2022-10-05T05:27:02.850Z,101227.75
2022-10-05T05:29:53.115Z,101225.12
2022-10-05T05:32:22.665Z,101227.72
2022-10-05T05:35:12.203Z,101224.22
2022-10-05T05:38:23.534Z,101232.03
2022-10-05T05:41:15.735Z,101235.41
2022-10-05T05:43:48.299Z,101242.31
2022-10-05T05:46:51.068Z,101240.53
2022-10-05T05:49:27.714Z,101249.22
2022-10-05T05:52:01.799Z,101255.16
2022-10-05T05:54:43.731Z,101249.09
2022-10-05T05:57:13.301Z,101258.47
2022-10-05T05:59:47.829Z,101262.97
2022-10-05T06:02:20.687Z,101266.31
2022-10-05T06:05:01.325Z,101268.06
2022-10-05T06:07:31.267Z,101267.97
2022-10-05T06:10:19.849Z,101269.53
2022-10-05T06:12:50.037Z,101274.66
2022-10-05T06:15:24.555Z,101279.03
2022-10-05T06:17:55.974Z,101291.06
2022-10-05T06:20:34.689Z,101304.72
2022-10-05T06:23:14.401Z,101314.22
2022-10-05T06:25:57.220Z,101317.41
2022-10-05T06:28:28.293Z,101318.00
2022-10-05T06:31:11.385Z,101315.44
2022-10-05T06:33:47.145Z,101317.00
2022-10-05T06:36:48.697Z,101323.16
2022-10-05T06:40:00.755Z,101324.56
2022-10-05T06:42:48.961Z,101323.25
2022-10-05T06:45:38.639Z,101336.34
2022-10-05T06:48:48.996Z,101340.47
2022-10-05T06:51:32.454Z,101339.53
2022-10-05T06:54:13.333Z,101337.72
2022-10-05T06:56:48.748Z,101338.25
2022-10-05T06:59:39.645Z,101348.59
2022-10-05T07:02:16.981Z,101343.09
2022-10-05T07:04:48.136Z,101349.78
2022-10-05T07:07:42.839Z,101356.53
2022-10-05T07:10:28.325Z,101355.34
2022-10-05T07:13:15.510Z,101359.56
2022-10-05T07:15:47.160Z,101359.50
2022-10-05T07:18:47.023Z,101359.00
2022-10-05T07:21:18.990Z,101363.88
2022-10-05T07:24:12.445Z,101346.91
2022-10-05T07:26:46.019Z,101342.13
2022-10-05T07:29:37.321Z,101344.78
2022-10-05T07:32:56.265Z,101345.50
2022-10-05T07:36:07.570Z,101351.38
2022-10-05T07:38:47.887Z,101350.09
2022-10-05T07:41:37.870Z,101350.47
2022-10-05T07:44:22.912Z,101350.19
2022-10-05T07:47:10.870Z,101344.75
2022-10-05T07:49:49.689Z,101349.91
2022-10-05T07:52:24.620Z,101341.87
2022-10-05T07:55:04.581Z,101342.94
2022-10-05T07:57:45.221Z,101344.06
2022-10-05T08:00:20.331Z,101351.06
2022-10-05T08:02:52.607Z,101350.38
2022-10-05T08:05:27.595Z,101353.19
2022-10-05T08:08:43.385Z,101351.22
2022-10-05T08:11:18.060Z,101356.75
2022-10-05T08:13:55.827Z,101360.16
2022-10-05T08:16:27.319Z,101349.09
2022-10-05T08:19:18.887Z,101352.03
2022-10-05T08:21:52.298Z,101344.63
2022-10-05T08:24:23.194Z,101342.09
2022-10-05T08:26:59.883Z,101338.16
2022-10-05T08:29:27.609Z,101332.44
2022-10-05T08:32:02.797Z,101331.56
2022-10-05T08:34:39.552Z,101318.66
2022-10-05T08:37:37.759Z,101326.25
2022-10-05T08:40:43.132Z,101328.31
2022-10-05T08:43:34.349Z,101324.84
2022-10-05T08:46:21.859Z,101326.78
2022-10-05T08:49:10.205Z,101320.34
2022-10-05T08:51:41.593Z,101312.97
2022-10-05T08:54:35.825Z,101309.38
2022-10-05T08:57:28.536Z,101319.50
2022-10-05T09:00:13.027Z,101312.00
2022-10-05T09:02:59.524Z,101314.91
2022-10-05T09:05:58.642Z,101315.31
2022-10-05T09:08:57.810Z,101316.81
2022-10-05T09:11:31.994Z,101327.41
2022-10-05T09:14:25.043Z,101335.97
2022-10-05T09:16:57.706Z,101329.25
2022-10-05T09:19:52.165Z,101337.00
2022-10-05T09:22:36.132Z,101342.50
2022-10-05T09:25:17.272Z,101344.38
2022-10-05T09:28:02.404Z,101339.97
2022-10-05T09:30:54.658Z,101347.28
2022-10-05T09:33:52.017Z,101353.94
2022-10-05T09:36:35.213Z,101344.09
2022-10-05T09:39:24.899Z,101335.69
2022-10-05T09:42:12.791Z,101338.53
2022-10-05T09:45:21.010Z,101341.84
2022-10-05T09:48:08.175Z,101343.91
2022-10-05T09:50:49.608Z,101340.00
2022-10-05T09:53:41.037Z,101332.31
2022-10-05T09:56:46.604Z,101330.44
2022-10-05T09:59:29.973Z,101327.19
2022-10-05T10:02:27.703Z,101320.78
2022-10-05T10:05:08.014Z,101329.09
2022-10-05T10:07:58.245Z,101326.50
2022-10-05T10:11:04.920Z,101329.59
2022-10-05T10:13:35.488Z,101330.06
2022-10-05T10:16:25.765Z,101326.50
2022-10-05T10:19:15.355Z,101328.22
2022-10-05T10:22:06.808Z,101325.50
2022-10-05T10:24:52.552Z,101323.25
2022-10-05T10:27:57.904Z,101320.38
2022-10-05T10:30:43.809Z,101317.09
2022-10-05T10:33:33.030Z,101330.94
2022-10-05T10:36:16.463Z,101327.50
2022-10-05T10:38:59.944Z,101328.72
2022-10-05T10:41:45.607Z,101322.13
2022-10-05T10:44:37.154Z,101318.37
2022-10-05T10:47:35.743Z,101319.69
2022-10-05T10:50:25.946Z,101319.94
2022-10-05T10:53:25.003Z,101321.41
2022-10-05T10:56:08.800Z,101318.91
2022-10-05T10:59:00.809Z,101320.09
2022-10-05T11:01:32.125Z,101320.09
2022-10-05T11:04:18.886Z,101314.78
2022-10-05T11:07:16.420Z,101310.34
2022-10-05T11:10:23.353Z,101321.97
2022-10-05T11:12:54.345Z,101316.19
2022-10-05T11:15:35.141Z,101322.19
2022-10-05T11:18:20.266Z,101314.94
2022-10-05T11:20:47.888Z,101308.63
2022-10-05T11:23:54.779Z,101305.59
2022-10-05T11:26:32.541Z,101302.34
2022-10-05T11:29:22.302Z,101304.00
2022-10-05T11:32:15.183Z,101306.28
2022-10-05T11:35:24.642Z,101307.63
2022-10-05T11:37:56.318Z,101297.50
2022-10-05T11:40:38.684Z,101283.66
2022-10-05T11:43:14.203Z,101281.00
2022-10-05T11:45:57.833Z,101282.31
2022-10-05T11:49:10.453Z,101268.03
2022-10-05T11:51:53.395Z,101270.84
2022-10-05T11:54:35.148Z,101266.41
2022-10-05T11:57:52.946Z,101271.78
2022-10-05T12:00:23.910Z,101265.03
2022-10-05T12:02:54.962Z,101261.72
2022-10-05T12:05:41.460Z,101257.59
2022-10-05T12:08:12.874Z,101255.56
2022-10-05T12:10:48.524Z,101249.38
2022-10-05T12:13:45.121Z,101244.41
2022-10-05T12:16:27.578Z,101238.00
2022-10-05T12:19:07.303Z,101248.25
2022-10-05T12:22:15.556Z,101247.34
2022-10-05T12:24:55.714Z,101242.94
2022-10-05T12:27:25.555Z,101244.56
2022-10-05T12:30:26.514Z,101239.69
2022-10-05T12:33:04.248Z,101242.25
2022-10-05T12:35:48.372Z,101247.50
2022-10-05T12:38:30.899Z,101249.69
2022-10-05T12:41:18.931Z,101247.31
2022-10-05T12:44:14.923Z,101237.47
2022-10-05T12:46:49.279Z,101242.59
2022-10-05T12:49:36.249Z,101227.53
2022-10-05T12:52:06.968Z,101223.41
2022-10-05T12:54:55.372Z,101221.03
2022-10-05T12:57:35.603Z,101222.28
2022-10-05T13:00:06.235Z,101227.81
2022-10-05T13:02:34.311Z,101220.59
2022-10-05T13:05:11.118Z,101207.50
2022-10-05T13:07:51.772Z,101214.00
2022-10-05T13:10:28.231Z,101210.59
2022-10-05T13:13:24.295Z,101216.41
2022-10-05T13:16:26.653Z,101215.12
2022-10-05T13:19:34.052Z,101214.34
2022-10-05T13:22:32.812Z,101217.75
2022-10-05T13:25:04.417Z,101220.94
2022-10-05T13:27:35.731Z,101208.69
2022-10-05T13:30:16.700Z,101211.03
2022-10-05T13:32:50.945Z,101201.44
2022-10-05T13:35:31.644Z,101202.53
2022-10-05T13:38:16.470Z,101197.66
2022-10-05T13:41:16.835Z,101195.25
2022-10-05T13:43:48.758Z,101201.44
2022-10-05T13:46:33.425Z,101199.37
2022-10-05T13:49:31.366Z,101196.97
2022-10-05T13:52:09.233Z,101200.56
2022-10-05T13:54:41.967Z,101196.81
2022-10-05T13:57:51.735Z,101193.69
2022-10-05T14:00:24.246Z,101200.41
2022-10-05T14:02:57.124Z,101204.91
2022-10-05T14:05:29.586Z,101196.56
2022-10-05T14:08:16.190Z,101195.06
2022-10-05T14:10:47.133Z,101196.09
2022-10-05T14:13:45.101Z,101202.34
2022-10-05T14:16:13.257Z,101200.72
2022-10-05T14:19:05.481Z,101205.88
2022-10-05T14:21:44.075Z,101194.84
2022-10-05T14:24:44.867Z,101196.13
2022-10-05T14:27:25.263Z,101202.22
2022-10-05T14:30:13.477Z,101204.16
2022-10-05T14:32:59.544Z,101203.75
2022-10-05T14:35:44.106Z,101209.25
2022-10-05T14:38:17.805Z,101199.94
2022-10-05T14:40:46.069Z,101202.22
2022-10-05T14:43:16.628Z,101203.78
2022-10-05T14:45:58.818Z,101203.31
2022-10-05T14:48:30.006Z,101201.28
2022-10-05T14:51:03.732Z,101190.91
2022-10-05T14:53:43.642Z,101198.50
2022-10-05T14:56:22.021Z,101190.88
2022-10-05T14:59:05.326Z,101196.94
2022-10-05T15:01:36.855Z,101196.66
2022-10-05T15:04:17.791Z,101195.91
2022-10-05T15:07:11.160Z,101194.94
2022-10-05T15:10:01.701Z,101195.69
2022-10-05T15:12:35.227Z,101200.53
2022-10-05T15:15:09.703Z,101194.72
2022-10-05T15:17:52.596Z,101195.53
2022-10-05T15:20:30.151Z,101180.53
2022-10-05T15:23:40.809Z,101172.66
2022-10-05T15:26:15.251Z,101168.78
2022-10-05T15:28:54.496Z,101164.38
2022-10-05T15:31:38.014Z,101170.41
2022-10-05T15:34:24.788Z,101178.00
2022-10-05T15:37:20.197Z,101176.53
2022-10-05T15:39:55.461Z,101184.19
2022-10-05T15:42:35.224Z,101170.25
2022-10-05T15:45:19.650Z,101164.84
2022-10-05T15:47:53.553Z,101163.78
2022-10-05T15:50:22.110Z,101165.03
2022-10-05T15:53:02.550Z,101174.69
2022-10-05T15:55:49.648Z,101174.62
2022-10-05T15:58:31.431Z,101173.50
2022-10-05T16:01:33.947Z,101183.34
2022-10-05T16:04:14.204Z,101172.91
2022-10-05T16:07:09.584Z,101168.34
2022-10-05T16:09:37.846Z,101173.72
2022-10-05T16:12:10.195Z,101173.56
2022-10-05T16:15:12.138Z,101177.19
2022-10-05T16:17:58.813Z,101171.34
2022-10-05T16:20:41.063Z,101179.37
2022-10-05T16:23:19.688Z,101183.13
2022-10-05T16:25:54.618Z,101186.34
2022-10-05T16:28:33.395Z,101185.78
2022-10-05T16:31:25.841Z,101195.03
2022-10-05T16:34:00.513Z,101193.84
2022-10-05T16:36:44.543Z,101197.69
2022-10-05T16:39:15.521Z,101200.72
2022-10-05T16:42:01.750Z,101204.78
2022-10-05T16:45:13.768Z,101207.91
2022-10-05T16:47:57.361Z,101205.75
2022-10-05T16:50:44.189Z,101213.03
2022-10-05T16:53:42.463Z,101207.97
2022-10-05T16:56:13.820Z,101206.50
2022-10-05T16:58:57.577Z,101209.19
2022-10-05T17:01:44.028Z,101216.37
2022-10-05T17:04:24.200Z,101222.94
2022-10-05T17:07:25.824Z,101226.31
2022-10-05T17:10:09.394Z,101231.00
2022-10-05T17:12:40.807Z,101225.25
2022-10-05T17:15:23.998Z,101234.75
2022-10-05T17:18:06.638Z,101230.53
2022-10-05T17:20:45.320Z,101230.63
2022-10-05T17:23:54.034Z,101239.88
2022-10-05T17:26:56.714Z,101235.53
2022-10-05T17:29:28.065Z,101241.72
2022-10-05T17:32:10.241Z,101234.91
2022-10-05T17:34:40.274Z,101239.19
2022-10-05T17:37:38.100Z,101243.37
2022-10-05T17:40:35.328Z,101243.34
2022-10-05T17:43:24.182Z,101245.09
2022-10-05T17:45:55.837Z,101247.59
2022-10-05T17:48:43.176Z,101246.00
2022-10-05T17:51:56.068Z,101252.94
2022-10-05T17:55:03.235Z,101253.16
2022-10-05T17:57:31.946Z,101252.44
2022-10-05T18:00:02.108Z,101254.13
2022-10-05T18:02:36.347Z,101255.44
2022-10-05T18:05:16.305Z,101252.16
2022-10-05T18:08:08.783Z,101256.34
2022-10-05T18:10:41.267Z,101254.75
2022-10-05T18:13:27.726Z,101242.84
2022-10-05T18:15:56.059Z,101243.69
2022-10-05T18:18:35.526Z,101238.84
2022-10-05T18:21:14.839Z,101243.22
2022-10-05T18:23:50.361Z,101245.69
2022-10-05T18:26:23.847Z,101240.87
2022-10-05T18:29:48.377Z,101250.97
2022-10-05T18:32:35.227Z,101251.94
2022-10-05T18:35:15.412Z,101254.94
2022-10-05T18:37:49.587Z,101255.91
2022-10-05T18:40:34.792Z,101252.78
2022-10-05T18:43:31.537Z,101251.84
2022-10-05T18:46:18.541Z,101250.09
2022-10-05T18:49:17.462Z,101252.12
2022-10-05T18:52:00.425Z,101237.72
2022-10-05T18:54:51.243Z,101243.56
2022-10-05T18:57:40.165Z,101242.56
2022-10-05T19:00:21.182Z,101244.53
2022-10-05T19:03:00.791Z,101244.97
2022-10-05T19:05:48.697Z,101242.31
2022-10-05T19:08:33.509Z,101241.62
2022-10-05T19:11:39.757Z,101255.94
2022-10-05T19:14:31.463Z,101260.09
2022-10-05T19:17:25.593Z,101251.75
2022-10-05T19:19:57.575Z,101250.87
2022-10-05T19:22:47.398Z,101256.31
2022-10-05T19:25:37.052Z,101258.25
2022-10-05T19:28:08.245Z,101262.06
2022-10-05T19:31:14.987Z,101259.66
2022-10-05T19:34:09.509Z,101267.97
2022-10-05T19:37:15.723Z,101258.44
2022-10-05T19:40:17.747Z,101267.22
2022-10-05T19:43:07.871Z,101262.81
2022-10-05T19:45:39.809Z,101255.25
2022-10-05T19:48:26.658Z,101261.63
2022-10-05T19:51:00.841Z,101269.66
2022-10-05T19:53:37.288Z,101266.34
2022-10-05T19:56:29.341Z,101272.22
2022-10-05T19:58:59.466Z,101266.44
2022-10-05T20:01:31.505Z,101263.91
2022-10-05T20:03:59.545Z,101268.84
2022-10-05T20:06:30.087Z,101269.59
2022-10-05T20:09:00.403Z,101277.91
2022-10-05T20:11:29.347Z,101276.75
2022-10-05T20:13:57.469Z,101277.66
2022-10-05T20:19:36.456Z,101281.94
2022-10-05T20:22:25.477Z,101288.00
2022-10-05T20:24:57.364Z,101286.28
2022-10-05T20:27:40.876Z,101292.34
2022-10-05T20:30:17.061Z,101301.34
2022-10-05T20:32:52.972Z,101299.38
2022-10-05T20:35:26.301Z,101301.66
2022-10-05T20:37:54.413Z,101312.44
2022-10-05T20:40:23.154Z,101305.72
2022-10-05T20:42:51.746Z,101299.25
2022-10-05T20:45:19.985Z,101298.13
2022-10-05T20:47:50.765Z,101297.47
2022-10-05T20:50:18.915Z,101292.00
2022-10-05T20:52:47.322Z,101295.00
2022-10-05T20:55:15.790Z,101297.56
2022-10-05T20:57:43.437Z,101299.69
2022-10-05T21:00:12.428Z,101301.31
2022-10-05T21:02:41.015Z,101297.47
2022-10-05T21:05:09.693Z,101289.38
2022-10-05T21:07:38.022Z,101296.22
2022-10-05T21:10:07.159Z,101298.94
2022-10-05T21:12:35.391Z,101305.31
2022-10-05T21:15:06.727Z,101303.84
2022-10-05T21:17:37.328Z,101297.84
2022-10-05T21:20:05.781Z,101302.28
2022-10-05T21:22:36.377Z,101306.28
2022-10-05T21:25:05.495Z,101304.06
2022-10-05T21:27:34.765Z,101300.50
2022-10-05T21:30:03.368Z,101304.63
2022-10-05T21:32:31.318Z,101305.72
2022-10-05T21:34:58.993Z,101299.06
2022-10-05T21:37:29.158Z,101303.22
2022-10-05T21:39:57.450Z,101303.22
2022-10-05T21:42:26.454Z,101304.87
2022-10-05T21:44:54.941Z,101303.34
2022-10-05T21:47:23.108Z,101300.16
2022-10-05T21:49:50.677Z,101297.69
2022-10-05T21:52:19.011Z,101299.00
2022-10-05T21:54:46.944Z,101300.31
2022-10-05T21:57:15.484Z,101304.37
2022-10-05T21:59:45.067Z,101293.09
2022-10-05T22:02:13.416Z,101303.25
2022-10-05T22:04:41.928Z,101298.72
2022-10-05T22:07:18.528Z,101305.84
2022-10-05T22:09:51.673Z,101304.81
2022-10-05T22:12:21.564Z,101299.81
2022-10-05T22:14:53.292Z,101296.28
2022-10-05T22:17:25.909Z,101292.50
2022-10-05T22:19:57.084Z,101294.81
2022-10-05T22:22:30.925Z,101291.00
2022-10-05T22:25:00.544Z,101281.34
2022-10-05T22:27:30.153Z,101284.84
2022-10-05T22:29:59.428Z,101290.09
2022-10-05T22:32:29.493Z,101285.41
2022-10-05T22:34:59.600Z,101288.25
2022-10-05T22:37:29.117Z,101284.81
2022-10-05T22:39:59.194Z,101284.31
2022-10-05T22:42:29.343Z,101281.28
2022-10-05T22:44:59.355Z,101282.66
2022-10-05T22:47:30.871Z,101278.34
2022-10-05T22:50:02.336Z,101281.00
2022-10-05T22:52:32.499Z,101277.22
2022-10-05T22:55:01.795Z,101287.78
2022-10-05T22:57:38.505Z,101278.94
2022-10-05T23:00:09.931Z,101281.06
2022-10-05T23:02:43.493Z,101277.59
2022-10-05T23:05:14.144Z,101274.94
2022-10-05T23:07:49.620Z,101270.56
2022-10-05T23:10:21.214Z,101269.38
2022-10-05T23:13:00.718Z,101267.13
2022-10-05T23:15:34.747Z,101269.50
2022-10-05T23:18:04.675Z,101268.91
2022-10-05T23:20:34.466Z,101263.69
2022-10-05T23:23:03.156Z,101263.16
2022-10-05T23:25:31.854Z,101258.78
2022-10-05T23:28:02.874Z,101255.19
2022-10-05T23:30:32.347Z,101251.13
2022-10-05T23:33:03.568Z,101256.31
2022-10-05T23:38:01.380Z,101256.00
2022-10-05T23:40:32.594Z,101256.66
2022-10-05T23:43:01.615Z,101248.38
2022-10-05T23:45:31.776Z,101261.25
2022-10-05T23:48:01.731Z,101250.44
2022-10-05T23:50:31.756Z,101249.63
2022-10-05T23:53:00.598Z,101254.81
2022-10-05T23:55:29.246Z,101254.56
2022-10-05T23:57:59.305Z,101253.91
